createdAt,value
2018-06-11T00:01:45.661Z,14.23
2018-06-11T00:04:13.899Z,15.93
2018-06-11T00:06:42.153Z,12.90
2018-06-11T00:09:10.421Z,13.13
2018-06-11T00:11:38.780Z,13.47
2018-06-11T00:14:06.993Z,13.43
2018-06-11T00:16:35.261Z,14.10
2018-06-11T00:19:03.485Z,11.90
2018-06-11T00:21:31.739Z,13.43
2018-06-11T00:24:00.012Z,12.60
2018-06-11T00:26:28.250Z,16.27
2018-06-11T00:28:56.507Z,14.20
2018-06-11T00:31:24.727Z,17.87
2018-06-11T00:33:52.956Z,12.37
2018-06-11T00:36:21.259Z,21.20
2018-06-11T00:38:49.484Z,17.50
2018-06-11T00:41:17.697Z,16.87
2018-06-11T00:43:45.915Z,18.53
2018-06-11T00:46:14.137Z,12.87
2018-06-11T00:48:42.407Z,23.17
2018-06-11T00:51:10.670Z,14.17
2018-06-11T00:53:38.874Z,14.77
2018-06-11T00:56:08.747Z,14.70
2018-06-11T00:58:36.967Z,15.13
2018-06-11T01:01:05.462Z,14.40
2018-06-11T01:03:33.819Z,18.57
2018-06-11T01:06:02.065Z,18.37
2018-06-11T01:08:30.337Z,20.67
2018-06-11T01:10:58.566Z,14.83
2018-06-11T01:13:26.882Z,16.60
2018-06-11T01:15:55.101Z,13.20
2018-06-11T01:18:23.393Z,14.17
2018-06-11T01:20:51.638Z,14.50
2018-06-11T01:23:19.881Z,14.00
2018-06-11T01:25:48.147Z,13.93
2018-06-11T01:28:16.516Z,16.50
2018-06-11T01:30:44.762Z,16.63
2018-06-11T01:33:13.051Z,14.77
2018-06-11T01:35:41.322Z,16.93
2018-06-11T01:38:09.617Z,18.07
2018-06-11T01:40:37.882Z,18.80
2018-06-11T01:43:06.170Z,16.57
2018-06-11T01:45:34.402Z,15.87
2018-06-11T01:48:02.635Z,19.70
2018-06-11T01:50:30.903Z,18.40
2018-06-11T01:52:59.136Z,16.73
2018-06-11T01:55:27.390Z,22.70
2018-06-11T01:57:55.642Z,18.10
2018-06-11T02:00:23.871Z,22.07
2018-06-11T02:02:52.150Z,19.00
2018-06-11T02:05:20.374Z,20.17
2018-06-11T02:07:48.630Z,20.50
2018-06-11T02:10:16.841Z,17.30
2018-06-11T02:12:45.087Z,26.93
2018-06-11T02:15:13.383Z,19.90
2018-06-11T02:17:41.622Z,27.70
2018-06-11T02:20:09.861Z,25.00
2018-06-11T02:22:38.145Z,29.33
2018-06-11T02:25:06.374Z,23.33
2018-06-11T02:27:34.749Z,24.60
2018-06-11T02:30:02.987Z,29.07
2018-06-11T02:32:31.235Z,28.63
2018-06-11T02:34:59.473Z,27.13
2018-06-11T02:37:27.696Z,28.60
2018-06-11T02:39:55.928Z,26.37
2018-06-11T02:42:24.187Z,29.80
2018-06-11T02:44:52.468Z,29.67
2018-06-11T02:47:20.701Z,28.20
2018-06-11T02:49:48.984Z,28.67
2018-06-11T02:52:17.231Z,31.63
2018-06-11T02:54:45.466Z,31.70
2018-06-11T02:57:13.776Z,34.07
2018-06-11T02:59:42.016Z,36.00
2018-06-11T03:02:10.267Z,32.30
2018-06-11T03:04:38.657Z,27.03
2018-06-11T03:07:06.925Z,31.57
2018-06-11T03:09:35.216Z,33.73
2018-06-11T03:12:03.480Z,39.67
2018-06-11T03:14:31.742Z,33.30
2018-06-11T03:16:59.999Z,31.83
2018-06-11T03:19:28.228Z,29.87
2018-06-11T03:21:56.502Z,34.13
2018-06-11T03:24:24.754Z,30.07
2018-06-11T03:26:52.974Z,33.00
2018-06-11T03:29:21.221Z,30.90
2018-06-11T03:31:49.454Z,31.10
2018-06-11T03:34:17.695Z,29.63
2018-06-11T03:36:46.017Z,31.80
2018-06-11T03:39:14.264Z,32.97
2018-06-11T03:41:42.485Z,33.53
2018-06-11T03:44:10.745Z,35.67
2018-06-11T03:46:39.015Z,40.33
2018-06-11T03:49:07.297Z,35.30
2018-06-11T03:51:35.563Z,34.70
2018-06-11T03:54:03.848Z,37.40
2018-06-11T03:56:32.121Z,34.53
2018-06-11T03:59:00.338Z,37.97
2018-06-11T04:01:28.699Z,34.57
2018-06-11T04:03:56.939Z,35.87
2018-06-11T04:06:25.269Z,35.67
2018-06-11T04:08:53.552Z,36.33
2018-06-11T04:11:21.793Z,33.73
2018-06-11T04:13:50.081Z,32.57
2018-06-11T04:16:19.522Z,30.93
2018-06-11T04:18:47.786Z,30.03
2018-06-11T04:21:16.041Z,29.73
2018-06-11T04:23:44.340Z,27.40
2018-06-11T04:26:12.655Z,26.83
2018-06-11T04:28:40.921Z,26.20
2018-06-11T04:31:09.147Z,29.23
2018-06-11T04:33:37.428Z,30.37
2018-06-11T04:36:05.760Z,28.17
2018-06-11T04:38:34.036Z,31.87
2018-06-11T04:41:02.269Z,26.60
2018-06-11T04:43:30.517Z,31.20
2018-06-11T04:45:58.765Z,29.70
2018-06-11T04:48:27.016Z,37.40
2018-06-11T04:50:55.262Z,33.77
2018-06-11T04:53:23.478Z,33.67
2018-06-11T04:55:51.707Z,35.53
2018-06-11T04:58:19.918Z,34.97
2018-06-11T05:00:48.171Z,34.83
2018-06-11T05:03:16.392Z,33.40
2018-06-11T05:05:44.750Z,37.50
2018-06-11T05:08:13.048Z,35.73
2018-06-11T05:10:41.292Z,38.17
2018-06-11T05:13:09.521Z,37.40
2018-06-11T05:15:37.785Z,36.27
2018-06-11T05:18:06.063Z,32.27
2018-06-11T05:20:34.301Z,36.30
2018-06-11T05:23:02.572Z,36.23
2018-06-11T05:25:30.829Z,34.50
2018-06-11T05:27:59.075Z,35.33
2018-06-11T05:30:27.379Z,36.60
2018-06-11T05:32:55.638Z,37.20
2018-06-11T05:35:23.870Z,39.07
2018-06-11T05:37:52.049Z,38.40
2018-06-11T05:40:20.278Z,40.10
2018-06-11T05:42:48.651Z,37.70
2018-06-11T05:45:16.855Z,36.47
2018-06-11T05:47:45.054Z,36.50
2018-06-11T05:50:13.280Z,36.63
2018-06-11T05:52:41.463Z,37.40
2018-06-11T05:55:09.729Z,40.23
2018-06-11T05:57:37.935Z,37.23
2018-06-11T06:00:06.188Z,38.03
2018-06-11T06:02:34.534Z,38.77
2018-06-11T06:05:02.735Z,38.67
2018-06-11T06:07:30.974Z,40.13
2018-06-11T06:09:59.161Z,42.37
2018-06-11T06:12:27.374Z,47.33
2018-06-11T06:14:55.601Z,41.60
2018-06-11T06:17:23.819Z,40.37
2018-06-11T06:19:52.013Z,47.73
2018-06-11T06:22:20.205Z,48.17
2018-06-11T06:24:48.451Z,49.93
2018-06-11T06:27:16.649Z,49.53
2018-06-11T06:29:44.870Z,50.73
2018-06-11T06:32:13.066Z,52.87
2018-06-11T06:34:41.342Z,50.87
2018-06-11T06:37:09.586Z,56.13
2018-06-11T06:39:37.801Z,53.70
2018-06-11T06:42:06.020Z,53.80
2018-06-11T06:44:34.210Z,53.37
2018-06-11T06:47:02.418Z,49.03
2018-06-11T06:49:30.659Z,48.30
2018-06-11T06:51:58.902Z,49.33
2018-06-11T06:54:27.120Z,48.33
2018-06-11T06:56:55.336Z,48.70
2018-06-11T06:59:23.552Z,46.97
2018-06-11T07:01:51.757Z,50.27
2018-06-11T07:04:19.946Z,49.20
2018-06-11T07:06:48.252Z,43.30
2018-06-11T07:09:16.452Z,47.80
2018-06-11T07:11:44.667Z,47.23
2018-06-11T07:14:12.940Z,43.53
2018-06-11T07:16:41.127Z,44.13
2018-06-11T07:19:09.324Z,40.27
2018-06-11T07:21:37.547Z,45.43
2018-06-11T07:24:05.769Z,41.27
2018-06-11T07:26:33.968Z,42.50
2018-06-11T07:29:02.177Z,39.03
2018-06-11T07:31:30.360Z,42.17
2018-06-11T07:33:58.545Z,35.00
2018-06-11T07:36:26.781Z,34.90
2018-06-11T07:38:55.019Z,30.77
2018-06-11T07:41:23.330Z,31.13
2018-06-11T07:43:51.577Z,33.90
2018-06-11T07:46:19.814Z,27.90
2018-06-11T07:48:48.060Z,30.87
2018-06-11T07:51:16.299Z,30.33
2018-06-11T07:53:44.539Z,32.33
2018-06-11T07:56:12.756Z,31.87
2018-06-11T07:58:40.998Z,32.23
2018-06-11T08:01:09.256Z,31.30
2018-06-11T08:03:38.412Z,30.40
2018-06-11T08:06:06.671Z,31.10
2018-06-11T08:08:34.873Z,30.00
2018-06-11T08:11:03.062Z,29.23
2018-06-11T08:13:31.296Z,29.47
2018-06-11T08:15:59.508Z,30.97
2018-06-11T08:18:27.722Z,29.40
2018-06-11T08:20:55.980Z,27.30
2018-06-11T08:23:24.162Z,28.77
2018-06-11T08:25:52.379Z,30.53
2018-06-11T08:28:20.582Z,27.73
2018-06-11T08:30:48.787Z,27.13
2018-06-11T08:33:16.998Z,26.70
2018-06-11T08:35:45.232Z,25.87
2018-06-11T08:38:13.449Z,26.77
2018-06-11T08:40:41.651Z,23.80
2018-06-11T08:43:09.901Z,26.30
2018-06-11T08:45:38.119Z,22.97
2018-06-11T08:48:06.337Z,24.43
2018-06-11T08:50:34.571Z,20.43
2018-06-11T08:53:02.857Z,20.90
2018-06-11T08:55:31.062Z,22.97
2018-06-11T08:57:59.273Z,25.30
2018-06-11T09:00:27.484Z,22.80
2018-06-11T09:02:55.668Z,22.80
2018-06-11T09:05:23.895Z,20.83
2018-06-11T09:07:52.096Z,23.67
2018-06-11T09:10:20.298Z,20.00
2018-06-11T09:12:48.512Z,21.70
2018-06-11T09:15:16.825Z,20.70
2018-06-11T09:17:45.101Z,20.23
2018-06-11T09:20:13.411Z,21.13
2018-06-11T09:22:41.640Z,23.57
2018-06-11T09:25:11.015Z,22.57
2018-06-11T09:27:39.272Z,24.33
2018-06-11T09:30:07.623Z,21.93
2018-06-11T09:32:35.906Z,23.90
2018-06-11T09:35:04.212Z,23.90
2018-06-11T09:37:32.447Z,25.10
2018-06-11T09:40:00.685Z,21.53
2018-06-11T09:42:28.992Z,22.13
2018-06-11T09:44:57.296Z,22.07
2018-06-11T09:47:25.540Z,21.77
2018-06-11T09:49:53.836Z,24.07
2018-06-11T09:52:22.115Z,18.40
2018-06-11T09:54:50.395Z,18.43
2018-06-11T09:57:18.690Z,17.43
2018-06-11T09:59:47.070Z,18.30
2018-06-11T10:02:15.350Z,18.47
2018-06-11T10:04:43.626Z,17.20
2018-06-11T10:07:11.957Z,17.80
2018-06-11T10:09:40.229Z,16.70
2018-06-11T10:12:08.438Z,18.83
2018-06-11T10:14:36.666Z,17.23
2018-06-11T10:17:11.281Z,17.70
2018-06-11T10:19:39.593Z,18.47
2018-06-11T10:22:07.872Z,17.37
2018-06-11T10:24:36.148Z,17.60
2018-06-11T10:27:04.369Z,19.63
2018-06-11T10:29:32.594Z,17.73
2018-06-11T10:32:00.811Z,17.83
2018-06-11T10:34:29.009Z,16.67
2018-06-11T10:36:57.226Z,17.83
2018-06-11T10:39:25.445Z,15.57
2018-06-11T10:41:53.670Z,16.43
2018-06-11T10:44:21.893Z,16.43
2018-06-11T10:46:50.100Z,20.13
2018-06-11T10:49:18.304Z,17.70
2018-06-11T10:51:46.509Z,17.67
2018-06-11T10:54:14.734Z,16.77
2018-06-11T10:56:42.973Z,18.57
2018-06-11T10:59:11.224Z,14.53
2018-06-11T11:01:39.453Z,16.17
2018-06-11T11:04:07.675Z,15.27
2018-06-11T11:06:35.910Z,16.00
2018-06-11T11:09:05.895Z,14.03
2018-06-11T11:11:34.099Z,15.93
2018-06-11T11:14:02.302Z,15.60
2018-06-11T11:16:30.537Z,14.30
2018-06-11T11:18:58.724Z,14.70
2018-06-11T11:21:26.940Z,17.70
2018-06-11T11:23:55.206Z,14.17
2018-06-11T11:26:23.428Z,14.63
2018-06-11T11:28:51.636Z,14.17
2018-06-11T11:31:19.887Z,13.60
2018-06-11T11:33:48.117Z,13.60
2018-06-11T11:36:16.318Z,10.67
2018-06-11T11:38:44.535Z,11.70
2018-06-11T11:41:12.746Z,12.07
2018-06-11T11:43:40.944Z,16.57
2018-06-11T11:46:09.174Z,11.00
2018-06-11T11:48:37.381Z,10.80
2018-06-11T11:51:05.659Z,11.60
2018-06-11T11:53:33.872Z,11.30
2018-06-11T11:56:02.126Z,10.63
2018-06-11T11:58:30.331Z,11.17
2018-06-11T12:00:58.539Z,9.73
2018-06-11T12:03:26.718Z,9.90
2018-06-11T12:05:54.885Z,8.80
2018-06-11T12:08:23.103Z,8.73
2018-06-11T12:10:51.357Z,8.83
2018-06-11T12:13:19.533Z,8.77
2018-06-11T12:15:47.710Z,7.60
2018-06-11T12:18:15.896Z,7.97
2018-06-11T12:20:44.091Z,8.10
2018-06-11T12:23:12.330Z,9.33
2018-06-11T12:25:40.550Z,18.73
2018-06-11T12:28:08.740Z,9.20
2018-06-11T12:30:36.933Z,8.47
2018-06-11T12:33:05.154Z,13.43
2018-06-11T12:35:33.357Z,9.17
2018-06-11T12:38:01.550Z,11.60
2018-06-11T12:40:29.746Z,8.50
2018-06-11T12:42:57.981Z,10.67
2018-06-11T12:45:26.185Z,10.30
2018-06-11T12:47:54.394Z,9.43
2018-06-11T12:50:22.600Z,8.40
2018-06-11T12:52:50.897Z,7.87
2018-06-11T12:55:19.093Z,9.78
2018-06-11T12:57:47.294Z,9.73
2018-06-11T13:00:15.492Z,8.78
2018-06-11T13:02:43.661Z,8.98
2018-06-11T13:05:11.840Z,7.92
2018-06-11T13:07:40.111Z,12.07
2018-06-11T13:10:08.390Z,10.25
2018-06-11T13:12:37.249Z,8.13
2018-06-11T13:15:05.499Z,7.87
2018-06-11T13:17:33.726Z,7.62
2018-06-11T13:20:02.008Z,8.38
2018-06-11T13:22:30.212Z,8.28
2018-06-11T13:24:58.521Z,7.37
2018-06-11T13:27:26.743Z,8.43
2018-06-11T13:29:54.949Z,7.85
2018-06-11T13:32:23.192Z,8.13
2018-06-11T13:34:51.380Z,8.28
2018-06-11T13:37:19.567Z,9.50
2018-06-11T13:39:47.758Z,9.00
2018-06-11T13:42:15.972Z,8.43
2018-06-11T13:44:44.182Z,7.70
2018-06-11T13:47:12.510Z,7.23
2018-06-11T13:49:41.087Z,9.45
2018-06-11T13:52:09.333Z,7.08
2018-06-11T13:54:37.510Z,9.77
2018-06-11T13:57:05.737Z,8.03
2018-06-11T13:59:33.918Z,9.37
2018-06-11T14:02:02.171Z,9.90
2018-06-11T14:04:30.374Z,10.40
2018-06-11T14:06:58.529Z,7.80
2018-06-11T14:09:26.734Z,7.23
2018-06-11T14:11:54.925Z,7.00
2018-06-11T14:14:23.117Z,7.47
2018-06-11T14:16:52.094Z,8.10
2018-06-11T14:19:20.280Z,8.13
2018-06-11T14:21:48.453Z,6.87
2018-06-11T14:24:16.749Z,6.97
2018-06-11T14:26:44.975Z,8.17
2018-06-11T14:29:13.144Z,8.03
2018-06-11T14:31:41.342Z,7.63
2018-06-11T14:34:09.568Z,7.77
2018-06-11T14:36:37.796Z,8.40
2018-06-11T14:39:07.710Z,8.03
2018-06-11T14:41:35.881Z,8.33
2018-06-11T14:44:04.121Z,8.10
2018-06-11T14:46:32.323Z,8.00
2018-06-11T14:49:00.531Z,8.10
2018-06-11T14:51:28.714Z,8.03
2018-06-11T14:53:56.891Z,7.73
2018-06-11T14:56:25.078Z,8.30
2018-06-11T14:58:53.401Z,7.73
2018-06-11T15:01:21.603Z,7.80
2018-06-11T15:03:49.804Z,43.43
2018-06-11T15:06:17.982Z,7.77
2018-06-11T15:08:46.160Z,10.63
2018-06-11T15:11:14.515Z,7.17
2018-06-11T15:13:43.424Z,10.13
2018-06-11T15:16:11.666Z,8.73
2018-06-11T15:18:39.836Z,9.57
2018-06-11T15:21:08.029Z,7.70
2018-06-11T15:23:36.277Z,9.50
2018-06-11T15:26:04.604Z,7.85
2018-06-11T15:28:32.818Z,7.33
2018-06-11T15:31:01.028Z,12.05
2018-06-11T15:33:29.246Z,7.93
2018-06-11T15:35:57.485Z,10.20
2018-06-11T15:38:25.725Z,7.70
2018-06-11T15:40:53.946Z,6.43
2018-06-11T15:43:22.135Z,7.77
2018-06-11T15:45:50.432Z,7.10
2018-06-11T15:48:19.414Z,6.70
2018-06-11T15:50:47.690Z,9.27
2018-06-11T15:53:15.921Z,7.47
2018-06-11T15:55:44.150Z,8.93
2018-06-11T15:58:12.375Z,7.03
2018-06-11T16:00:40.581Z,7.13
2018-06-11T16:03:08.772Z,8.33
2018-06-11T16:05:36.965Z,8.20
2018-06-11T16:08:05.236Z,7.63
2018-06-11T16:10:33.429Z,8.60
2018-06-11T16:13:01.657Z,10.13
2018-06-11T16:15:29.939Z,9.63
2018-06-11T16:17:58.115Z,8.37
2018-06-11T16:20:26.310Z,11.10
2018-06-11T16:22:54.581Z,9.30
2018-06-11T16:25:22.797Z,9.37
2018-06-11T16:27:51.603Z,9.60
2018-06-11T16:30:19.808Z,10.20
2018-06-11T16:32:48.098Z,8.20
2018-06-11T16:35:16.599Z,8.10
2018-06-11T16:37:44.803Z,9.80
2018-06-11T16:40:12.991Z,9.77
2018-06-11T16:45:15.925Z,9.50
2018-06-11T16:47:44.140Z,10.33
2018-06-11T16:50:12.357Z,9.40
2018-06-11T16:52:40.571Z,8.93
2018-06-11T16:55:08.826Z,8.97
2018-06-11T16:57:37.002Z,9.13
2018-06-11T17:00:05.348Z,10.20
2018-06-11T17:02:33.546Z,9.13
2018-06-11T17:05:01.721Z,13.83
2018-06-11T17:07:29.924Z,9.33
2018-06-11T17:09:58.102Z,8.90
2018-06-11T17:12:26.439Z,9.80
2018-06-11T17:14:54.641Z,9.43
2018-06-11T17:17:22.964Z,10.60
2018-06-11T17:19:51.176Z,9.60
2018-06-11T17:22:19.365Z,9.87
2018-06-11T17:24:47.622Z,12.63
2018-06-11T17:27:15.817Z,11.17
2018-06-11T17:29:44.012Z,10.37
2018-06-11T17:32:12.902Z,10.43
2018-06-11T17:34:41.133Z,10.13
2018-06-11T17:37:09.376Z,11.67
2018-06-11T17:39:37.649Z,9.80
2018-06-11T17:42:06.336Z,9.67
2018-06-11T17:44:34.590Z,9.80
2018-06-11T17:47:02.777Z,10.33
2018-06-11T17:49:31.033Z,10.67
2018-06-11T17:51:59.254Z,10.40
2018-06-11T17:54:27.515Z,10.83
2018-06-11T17:56:55.723Z,10.70
2018-06-11T17:59:23.916Z,9.70
2018-06-11T18:01:52.112Z,10.30
2018-06-11T18:04:20.312Z,10.47
2018-06-11T18:06:48.527Z,10.33
2018-06-11T18:09:16.808Z,10.97
2018-06-11T18:11:45.249Z,10.60
2018-06-11T18:14:13.499Z,11.30
2018-06-11T18:16:41.729Z,11.43
2018-06-11T18:19:09.931Z,10.73
2018-06-11T18:21:38.918Z,11.47
2018-06-11T18:24:07.160Z,10.20
2018-06-11T18:26:35.360Z,10.63
2018-06-11T18:29:03.580Z,9.93
2018-06-11T18:31:32.757Z,11.00
2018-06-11T18:34:00.958Z,10.67
2018-06-11T18:36:29.284Z,10.77
2018-06-11T18:38:57.551Z,10.20
2018-06-11T18:41:25.850Z,11.03
2018-06-11T18:43:54.081Z,11.13
2018-06-11T18:46:22.357Z,11.30
2018-06-11T18:48:50.631Z,11.87
2018-06-11T18:51:18.871Z,10.50
2018-06-11T18:53:47.102Z,11.20
2018-06-11T18:56:15.529Z,11.27
2018-06-11T18:58:43.762Z,13.23
2018-06-11T19:01:12.076Z,66.20
2018-06-11T19:03:40.342Z,66.13
2018-06-11T19:06:08.524Z,77.23
2018-06-11T19:08:36.846Z,66.87
2018-06-11T19:11:05.072Z,65.03
2018-06-11T19:13:33.295Z,38.30
2018-06-11T19:16:02.152Z,41.33
2018-06-11T19:18:31.182Z,31.50
2018-06-11T19:20:59.412Z,31.87
2018-06-11T19:23:27.646Z,41.87
2018-06-11T19:25:55.893Z,36.60
2018-06-11T19:28:24.084Z,31.63
2018-06-11T19:30:52.281Z,27.07
2018-06-11T19:33:20.564Z,24.80
2018-06-11T19:35:48.814Z,27.70
2018-06-11T19:38:17.002Z,24.10
2018-06-11T19:40:45.305Z,22.00
2018-06-11T19:43:13.687Z,23.03
2018-06-11T19:45:41.887Z,20.50
2018-06-11T19:48:10.298Z,23.83
2018-06-11T19:50:38.523Z,20.17
2018-06-11T19:53:06.756Z,22.43
2018-06-11T19:55:34.941Z,19.27
2018-06-11T19:58:03.163Z,22.73
2018-06-11T20:00:31.356Z,18.63
2018-06-11T20:02:59.583Z,22.10
2018-06-11T20:05:27.786Z,17.13
2018-06-11T20:07:56.081Z,17.73
2018-06-11T20:10:24.329Z,17.70
2018-06-11T20:12:52.634Z,18.80
2018-06-11T20:15:20.847Z,15.97
2018-06-11T20:17:49.034Z,16.70
2018-06-11T20:20:17.251Z,20.17
2018-06-11T20:22:45.468Z,17.00
2018-06-11T20:25:13.650Z,18.60
2018-06-11T20:27:41.937Z,19.67
2018-06-11T20:30:10.132Z,19.77
2018-06-11T20:32:38.508Z,17.00
2018-06-11T20:35:06.806Z,19.63
2018-06-11T20:37:35.085Z,20.47
2018-06-11T20:40:03.919Z,16.60
2018-06-11T20:42:32.125Z,16.93
2018-06-11T20:45:00.366Z,17.27
2018-06-11T20:47:28.567Z,18.07
2018-06-11T20:49:56.761Z,16.43
2018-06-11T20:52:25.068Z,17.30
2018-06-11T20:54:53.268Z,18.40
2018-06-11T20:57:21.504Z,18.77
2018-06-11T20:59:49.779Z,19.87
2018-06-11T21:02:17.980Z,19.43
2018-06-11T21:04:46.193Z,22.10
2018-06-11T21:07:14.409Z,19.93
2018-06-11T21:09:42.789Z,20.47
2018-06-11T21:12:11.006Z,20.63
2018-06-11T21:14:39.185Z,21.97
2018-06-11T21:17:07.361Z,26.60
2018-06-11T21:19:35.543Z,26.90
2018-06-11T21:22:03.891Z,25.23
2018-06-11T21:24:32.185Z,21.10
2018-06-11T21:27:00.445Z,22.30
2018-06-11T21:29:28.635Z,21.50
2018-06-11T21:31:56.819Z,23.27
2018-06-11T21:34:25.038Z,20.57
2018-06-11T21:36:53.283Z,21.87
2018-06-11T21:39:21.492Z,21.37
2018-06-11T21:41:49.802Z,20.33
2018-06-11T21:44:18.049Z,22.77
2018-06-11T21:46:46.363Z,23.30
2018-06-11T21:49:14.676Z,22.33
2018-06-11T21:51:42.928Z,20.70
2018-06-11T21:54:11.145Z,20.87
2018-06-11T21:56:39.354Z,19.50
2018-06-11T21:59:07.637Z,19.83
2018-06-11T22:01:35.898Z,19.73
2018-06-11T22:04:04.344Z,20.03
2018-06-11T22:06:32.402Z,22.60
2018-06-11T22:09:00.644Z,21.30
2018-06-11T22:11:28.936Z,19.97
2018-06-11T22:13:57.194Z,23.17
2018-06-11T22:16:25.428Z,20.87
2018-06-11T22:18:53.698Z,21.60
2018-06-11T22:21:21.941Z,25.07
2018-06-11T22:23:50.238Z,21.83
2018-06-11T22:26:18.565Z,23.90
2018-06-11T22:28:46.855Z,23.43
2018-06-11T22:31:15.110Z,22.73
2018-06-11T22:33:43.443Z,23.43
2018-06-11T22:36:11.694Z,25.73
2018-06-11T22:38:39.973Z,23.93
2018-06-11T22:41:08.257Z,24.17
2018-06-11T22:43:36.537Z,24.10
2018-06-11T22:46:04.823Z,25.20
2018-06-11T22:48:33.094Z,29.17
2018-06-11T22:51:01.382Z,28.67
2018-06-11T22:53:29.641Z,30.00
2018-06-11T22:55:57.915Z,30.30
2018-06-11T22:58:26.439Z,32.97
2018-06-11T23:00:54.692Z,32.07
2018-06-11T23:03:23.017Z,28.83
2018-06-11T23:05:51.266Z,28.77
2018-06-11T23:08:19.505Z,30.37
2018-06-11T23:10:47.791Z,33.47
2018-06-11T23:13:16.128Z,32.77
2018-06-11T23:15:44.432Z,32.43
2018-06-11T23:18:12.654Z,34.33
2018-06-11T23:20:40.925Z,34.10
2018-06-11T23:23:09.200Z,33.80
2018-06-11T23:25:37.463Z,34.27
2018-06-11T23:28:05.754Z,32.37
2018-06-11T23:30:34.048Z,31.77
2018-06-11T23:33:02.283Z,30.77
2018-06-11T23:35:30.547Z,29.97
2018-06-11T23:37:58.782Z,30.30
2018-06-11T23:40:27.115Z,29.73
2018-06-11T23:42:55.397Z,29.90
2018-06-11T23:45:23.631Z,31.07
2018-06-11T23:47:51.887Z,29.07
2018-06-11T23:50:20.130Z,29.83
2018-06-11T23:52:48.437Z,29.27
2018-06-11T23:55:16.701Z,29.67
2018-06-11T23:57:44.964Z,29.60
